Time;durP1;ratioP1;P1;durP2;ratioP2;P2;SDS_P1;SDS_P2;PMS_P1;PMS_P2;Temp;Humidity;BMP_temperature;BMP_pressure;BME280_temperature;BME280_humidity;BME280_pressure;Samples;Min_cycle;Max_cycle;Signal;HPM_P1;HPM_P2
2022/06/12 00:00:24;;;;;;;5.80;3.10;;;15.20;95.30;;;;;;5051967;28;20482;-71
2022/06/12 00:02:50;;;;;;;10.68;3.47;;;15.30;95.10;;;;;;5043856;28;20041;-70
2022/06/12 00:05:19;;;;;;;6.22;3.38;;;15.30;94.90;;;;;;5044052;28;20057;-70
2022/06/12 00:07:45;;;;;;;6.75;3.33;;;15.30;95.00;;;;;;5053544;28;20017;-70
2022/06/12 00:10:13;;;;;;;4.50;2.97;;;15.40;94.70;;;;;;5051587;28;20029;-70
2022/06/12 00:12:42;;;;;;;6.57;3.22;;;15.40;94.60;;;;;;5046670;28;20477;-70
2022/06/12 00:15:09;;;;;;;5.28;2.85;;;15.50;94.10;;;;;;5049433;28;20033;-70
2022/06/12 00:17:35;;;;;;;6.10;3.20;;;15.50;94.00;;;;;;5049221;28;20119;-69
2022/06/12 00:20:01;;;;;;;7.05;3.13;;;15.50;93.80;;;;;;5048646;28;20025;-70
2022/06/12 00:22:27;;;;;;;6.55;3.33;;;15.40;94.20;;;;;;5053681;28;20042;-69
2022/06/12 00:24:52;;;;;;;7.70;3.63;;;15.30;94.60;;;;;;5052302;28;20021;-69
2022/06/12 00:27:18;;;;;;;6.20;3.00;;;15.20;95.00;;;;;;5053882;28;20033;-69
2022/06/12 00:29:47;;;;;;;6.18;3.33;;;15.20;95.20;;;;;;5045159;28;20152;-69
2022/06/12 00:32:15;;;;;;;8.43;4.35;;;15.20;95.20;;;;;;5048117;28;20043;-69
2022/06/12 00:34:49;;;;;;;6.00;3.17;;;15.10;95.20;;;;;;5047652;28;20031;-69
2022/06/12 00:37:17;;;;;;;4.85;2.97;;;15.00;95.40;;;;;;5053154;28;20318;-68
2022/06/12 00:39:46;;;;;;;6.18;3.03;;;15.00;95.50;;;;;;5049608;28;20090;-69
2022/06/12 00:42:35;;;;;;;5.88;3.00;;;15.10;95.60;;;;;;5052833;28;20507;-68
2022/06/12 00:45:21;;;;;;;5.90;3.08;;;15.00;95.50;;;;;;5051890;28;20086;-70
2022/06/12 00:47:47;;;;;;;7.20;3.63;;;14.90;95.70;;;;;;5053483;28;20036;-70
2022/06/12 00:50:13;;;;;;;7.05;4.10;;;14.80;96.10;;;;;;5050463;28;20029;-71
2022/06/12 00:52:45;;;;;;;6.38;4.00;;;14.60;96.30;;;;;;5054322;28;20353;-69
2022/06/12 00:55:39;;;;;;;6.88;3.50;;;14.40;96.60;;;;;;5048264;28;20029;-70
2022/06/12 00:58:09;;;;;;;7.85;3.70;;;14.20;96.80;;;;;;5051633;28;20051;-70
2022/06/12 01:00:37;;;;;;;8.10;3.50;;;14.20;96.90;;;;;;5049605;28;20552;-70
2022/06/12 01:03:03;;;;;;;5.47;3.50;;;14.00;96.90;;;;;;5053086;28;20032;-70
2022/06/12 01:08:16;;;;;;;8.85;3.00;;;14.10;97.00;;;;;;5052617;28;20040;-69
2022/06/12 01:10:46;;;;;;;6.95;3.67;;;14.10;97.00;;;;;;5040911;28;20044;-69
2022/06/12 01:13:14;;;;;;;5.10;3.50;;;14.10;97.10;;;;;;5053016;28;20040;-70
2022/06/12 01:15:47;;;;;;;7.72;3.33;;;14.30;96.90;;;;;;5051499;28;20063;-70
2022/06/12 01:18:20;;;;;;;6.13;3.63;;;14.40;96.50;;;;;;5053315;28;20052;-70
2022/06/12 01:21:16;;;;;;;7.25;3.67;;;14.40;96.60;;;;;;5052835;28;20032;-71
2022/06/12 01:24:06;;;;;;;9.52;3.53;;;14.40;96.80;;;;;;5050866;28;20124;-69
2022/06/12 01:26:47;;;;;;;6.00;3.30;;;14.40;96.80;;;;;;5054527;28;20021;-70
2022/06/12 01:29:34;;;;;;;5.13;3.00;;;14.60;96.50;;;;;;5041004;28;20029;-70
2022/06/12 01:32:12;;;;;;;6.05;3.05;;;14.70;96.20;;;;;;5049494;28;20036;-70
2022/06/12 01:34:38;;;;;;;7.72;3.17;;;14.70;96.10;;;;;;5045446;28;20029;-70
2022/06/12 01:37:06;;;;;;;6.18;3.13;;;14.60;96.30;;;;;;5055342;28;20033;-70
2022/06/12 01:39:44;;;;;;;5.53;3.03;;;14.60;96.30;;;;;;5053026;28;20025;-70
2022/06/12 01:42:29;;;;;;;4.43;2.83;;;14.70;96.10;;;;;;5055113;28;20048;-70
2022/06/12 01:45:07;;;;;;;4.80;2.90;;;14.70;95.90;;;;;;5048343;28;20083;-70
2022/06/12 01:47:46;;;;;;;4.55;2.80;;;14.70;95.80;;;;;;5051331;28;20315;-69
2022/06/12 01:50:39;;;;;;;6.70;2.72;;;14.70;95.80;;;;;;5048072;28;20040;-69
2022/06/12 01:53:10;;;;;;;4.70;3.10;;;14.70;95.60;;;;;;5054408;28;20029;-70
2022/06/12 01:55:48;;;;;;;6.80;3.03;;;14.60;95.70;;;;;;5045703;28;20041;-69
2022/06/12 01:58:17;;;;;;;4.95;2.92;;;14.60;95.90;;;;;;5051241;28;20036;-70
2022/06/12 02:00:50;;;;;;;7.43;3.10;;;14.60;95.90;;;;;;5048581;28;20056;-69
2022/06/12 02:03:18;;;;;;;7.07;3.05;;;14.50;95.90;;;;;;5058065;28;20032;-69
2022/06/12 02:06:09;;;;;;;6.93;3.03;;;14.30;96.30;;;;;;5054640;28;20108;-69
2022/06/12 02:08:48;;;;;;;8.77;3.65;;;14.20;96.40;;;;;;5051290;28;20306;-70
2022/06/12 02:14:34;;;;;;;5.15;3.00;;;14.20;96.70;;;;;;5055028;28;20036;-70
2022/06/12 02:17:03;;;;;;;8.93;3.50;;;14.20;96.70;;;;;;5053426;28;20056;-70
2022/06/12 02:19:35;;;;;;;7.75;2.85;;;14.20;96.60;;;;;;5046763;28;20037;-70
2022/06/12 02:22:18;;;;;;;6.95;3.15;;;14.20;96.50;;;;;;5054728;28;20643;-70
2022/06/12 02:24:53;;;;;;;4.95;3.15;;;14.20;96.50;;;;;;5053647;28;20116;-70
2022/06/12 02:27:27;;;;;;;5.28;3.03;;;14.20;96.70;;;;;;5054576;28;20028;-70
2022/06/12 02:30:15;;;;;;;5.65;3.20;;;14.10;96.80;;;;;;5043716;28;20115;-70
2022/06/12 02:33:07;;;;;;;5.28;3.00;;;14.10;96.80;;;;;;5053666;28;20039;-70
2022/06/12 02:35:41;;;;;;;4.50;2.92;;;14.10;96.80;;;;;;5053766;28;20336;-70
2022/06/12 02:38:12;;;;;;;5.78;3.10;;;14.00;96.90;;;;;;5053195;28;20032;-70
2022/06/12 02:40:43;;;;;;;6.75;3.13;;;13.90;97.00;;;;;;5051037;28;20120;-70
2022/06/12 02:43:12;;;;;;;5.80;3.00;;;13.90;97.20;;;;;;5049192;28;20052;-70
2022/06/12 02:45:47;;;;;;;6.72;3.17;;;13.80;97.20;;;;;;5051259;28;20049;-70
2022/06/12 02:48:13;;;;;;;6.82;2.85;;;13.80;97.20;;;;;;5054874;28;20025;-70
2022/06/12 02:50:57;;;;;;;5.85;2.90;;;13.80;97.20;;;;;;5052951;28;20071;-70
2022/06/12 02:53:41;;;;;;;7.60;3.50;;;13.80;97.10;;;;;;5046307;28;20071;-70
2022/06/12 02:56:07;;;;;;;6.75;3.35;;;13.80;97.10;;;;;;5047770;28;20120;-70
2022/06/12 02:58:32;;;;;;;5.85;3.33;;;13.80;97.20;;;;;;5054483;28;20127;-70
2022/06/12 03:01:12;;;;;;;7.10;3.40;;;13.70;97.30;;;;;;5044726;28;20039;-70
2022/06/12 03:04:01;;;;;;;5.70;3.75;;;13.70;97.20;;;;;;5052140;28;20021;-70
2022/06/12 03:06:28;;;;;;;5.07;3.10;;;13.50;97.30;;;;;;5049472;28;20032;-70
2022/06/12 03:09:02;;;;;;;6.15;3.40;;;13.40;97.20;;;;;;5054063;28;20029;-70
2022/06/12 03:11:36;;;;;;;6.18;3.60;;;13.30;97.30;;;;;;5053080;28;20100;-70
2022/06/12 03:14:08;;;;;;;7.78;3.60;;;13.30;97.30;;;;;;5048850;28;20295;-70
2022/06/12 03:16:37;;;;;;;6.65;3.53;;;13.40;97.40;;;;;;5050601;28;20099;-70
2022/06/12 03:19:11;;;;;;;5.57;3.33;;;13.40;97.50;;;;;;5052174;28;20033;-70
2022/06/12 03:21:58;;;;;;;6.88;3.78;;;13.40;97.40;;;;;;5052579;28;20033;-70
2022/06/12 03:24:27;;;;;;;5.15;3.40;;;13.50;97.40;;;;;;5054297;28;20059;-69
2022/06/12 03:27:30;;;;;;;6.80;3.60;;;13.50;97.40;;;;;;5053890;28;20540;-70
2022/06/12 03:30:11;;;;;;;7.47;3.58;;;13.40;97.40;;;;;;5040888;28;20121;-70
2022/06/12 03:32:45;;;;;;;8.05;3.45;;;13.50;97.50;;;;;;5050057;28;20138;-69
2022/06/12 03:35:38;;;;;;;5.88;3.78;;;13.60;97.40;;;;;;5050996;28;20473;-69
2022/06/12 03:38:14;;;;;;;6.10;3.50;;;13.70;97.40;;;;;;5052995;28;20036;-69
2022/06/12 03:40:42;;;;;;;5.95;3.53;;;13.60;97.40;;;;;;5051208;28;20461;-71
2022/06/12 03:43:32;;;;;;;5.60;3.45;;;13.70;97.40;;;;;;5053707;28;20045;-71
2022/06/12 03:46:07;;;;;;;6.28;3.42;;;13.70;97.50;;;;;;5050940;28;20025;-71
2022/06/12 03:49:05;;;;;;;6.20;3.30;;;13.80;97.50;;;;;;5044316;28;20637;-71
2022/06/12 03:51:43;;;;;;;6.72;3.30;;;13.90;97.40;;;;;;5053134;28;20028;-70
2022/06/12 03:54:30;;;;;;;7.75;3.60;;;13.90;97.50;;;;;;5051814;28;20062;-70
2022/06/12 04:00:04;;;;;;;6.88;3.40;;;13.80;97.30;;;;;;5046897;28;20041;-70
2022/06/12 04:02:32;;;;;;;7.13;3.65;;;13.80;97.40;;;;;;5053270;28;20033;-70
2022/06/12 04:05:00;;;;;;;5.30;3.20;;;13.80;97.50;;;;;;5052864;28;20043;-70
2022/06/12 04:07:28;;;;;;;7.32;3.72;;;13.70;97.40;;;;;;5047079;28;20306;-70
2022/06/12 04:09:58;;;;;;;8.82;4.47;;;13.80;97.30;;;;;;5049608;28;20107;-71
2022/06/12 04:12:33;;;;;;;6.53;3.45;;;13.80;97.50;;;;;;5052495;28;20082;-70
2022/06/12 04:15:19;;;;;;;7.72;3.45;;;13.90;97.50;;;;;;5050691;28;20501;-70
2022/06/12 04:17:45;;;;;;;5.20;3.08;;;13.80;97.30;;;;;;5045154;28;20025;-70
2022/06/12 04:20:23;;;;;;;5.78;3.38;;;13.70;97.30;;;;;;5051295;28;20040;-70
2022/06/12 04:23:02;;;;;;;7.60;3.47;;;13.70;97.20;;;;;;5039813;28;20120;-70
2022/06/12 04:25:42;;;;;;;6.47;3.58;;;13.70;97.30;;;;;;5051930;28;20033;-69
2022/06/12 04:28:33;;;;;;;7.07;4.15;;;13.70;97.20;;;;;;5050805;28;20025;-70
2022/06/12 04:31:02;;;;;;;5.93;3.45;;;13.60;97.10;;;;;;5052235;28;20079;-70
2022/06/12 04:34:00;;;;;;;5.82;3.42;;;13.60;97.00;;;;;;5051159;28;20100;-70
2022/06/12 04:36:26;;;;;;;5.68;3.50;;;13.60;97.00;;;;;;5054165;28;20033;-70
2022/06/12 04:38:53;;;;;;;7.25;3.58;;;13.50;97.10;;;;;;5052405;28;20025;-69
2022/06/12 04:41:26;;;;;;;5.18;3.47;;;13.50;96.60;;;;;;5051336;28;20136;-70
2022/06/12 04:43:53;;;;;;;6.05;3.70;;;13.50;96.70;;;;;;5043052;28;20029;-69
2022/06/12 04:46:19;;;;;;;5.55;3.22;;;13.60;96.60;;;;;;5050642;28;20036;-70
2022/06/12 04:48:47;;;;;;;6.70;3.25;;;13.60;96.70;;;;;;5054362;28;20025;-70
2022/06/12 04:51:13;;;;;;;5.70;3.22;;;13.60;96.70;;;;;;5050892;28;20032;-70
2022/06/12 04:53:41;;;;;;;5.32;3.40;;;13.60;96.70;;;;;;5051047;28;20024;-71
2022/06/12 04:56:08;;;;;;;6.20;3.55;;;13.70;96.60;;;;;;5052948;28;20348;-70
2022/06/12 04:58:35;;;;;;;5.88;3.25;;;13.80;96.70;;;;;;5048405;28;20048;-70
2022/06/12 05:01:00;;;;;;;8.25;3.45;;;14.00;96.80;;;;;;5059439;28;20025;-70
2022/06/12 05:03:26;;;;;;;9.45;3.50;;;14.10;96.90;;;;;;5049496;28;20020;-70
2022/06/12 05:05:52;;;;;;;6.85;3.58;;;14.20;97.00;;;;;;5049954;28;20017;-69
2022/06/12 05:08:19;;;;;;;6.40;3.20;;;14.40;97.00;;;;;;5058446;28;20021;-70
2022/06/12 05:10:46;;;;;;;5.28;3.30;;;14.50;97.00;;;;;;5054199;28;20021;-70
2022/06/12 05:13:12;;;;;;;7.28;3.03;;;14.60;97.10;;;;;;5053589;28;20027;-70
2022/06/12 05:15:38;;;;;;;6.05;3.78;;;14.80;97.20;;;;;;5050112;28;20035;-70
2022/06/12 05:18:06;;;;;;;6.40;3.40;;;15.00;97.20;;;;;;5056377;28;20116;-70
2022/06/12 05:20:34;;;;;;;4.93;2.83;;;15.10;97.50;;;;;;5045958;28;20048;-70
2022/06/12 05:23:00;;;;;;;6.10;3.50;;;15.40;97.60;;;;;;5054565;28;20025;-70
2022/06/12 05:25:26;;;;;;;5.75;2.90;;;15.70;97.40;;;;;;5057398;28;20021;-70
2022/06/12 05:27:53;;;;;;;7.95;2.83;;;15.90;97.30;;;;;;5052072;28;20053;-70
2022/06/12 05:30:27;;;;;;;4.43;2.78;;;16.10;97.10;;;;;;5053441;28;20025;-70
2022/06/12 05:32:54;;;;;;;5.13;3.05;;;16.20;96.80;;;;;;5056350;28;20056;-70
2022/06/12 05:35:22;;;;;;;5.93;2.88;;;16.40;96.50;;;;;;5043319;28;20124;-70
2022/06/12 05:37:49;;;;;;;5.45;2.65;;;16.60;96.20;;;;;;5057599;28;20025;-70
2022/06/12 05:40:23;;;;;;;7.20;3.00;;;16.80;95.80;;;;;;5043991;28;20923;-69
2022/06/12 05:42:49;;;;;;;5.13;2.92;;;17.00;95.80;;;;;;5052558;28;20144;-70
2022/06/12 05:45:22;;;;;;;5.03;2.70;;;17.10;95.30;;;;;;4955557;28;20030;-70
2022/06/12 05:47:55;;;;;;;4.72;2.17;;;17.30;94.90;;;;;;5054809;28;20329;-70
2022/06/12 05:50:28;;;;;;;4.78;2.83;;;17.50;94.40;;;;;;5056311;28;20020;-70
2022/06/12 05:52:54;;;;;;;4.38;2.55;;;17.70;93.40;;;;;;5056844;28;20444;-70
2022/06/12 05:55:20;;;;;;;4.35;2.17;;;17.90;92.40;;;;;;5054438;28;20025;-70
2022/06/12 05:57:49;;;;;;;4.72;2.47;;;18.10;91.30;;;;;;5057333;28;20033;-70
2022/06/12 06:00:22;;;;;;;5.68;2.50;;;18.20;91.10;;;;;;5053601;28;20028;-70
2022/06/12 06:02:48;;;;;;;7.30;2.70;;;18.40;90.20;;;;;;5053951;28;20087;-69
2022/06/12 06:05:15;;;;;;;6.18;2.67;;;18.60;90.40;;;;;;5053608;28;20638;-70
2022/06/12 06:07:41;;;;;;;4.18;2.35;;;18.80;89.80;;;;;;5053849;28;20016;-70
2022/06/12 06:10:11;;;;;;;4.03;2.38;;;19.00;89.10;;;;;;5057030;28;20025;-70
2022/06/12 06:12:37;;;;;;;4.45;2.42;;;19.10;88.70;;;;;;5054643;28;20032;-70
2022/06/12 06:15:03;;;;;;;4.88;2.40;;;19.40;88.20;;;;;;5045512;28;20319;-70
2022/06/12 06:17:28;;;;;;;3.92;2.33;;;19.60;87.50;;;;;;5052761;28;20352;-70
2022/06/12 06:19:54;;;;;;;3.63;2.10;;;19.80;86.60;;;;;;5051672;28;20090;-70
2022/06/12 06:22:20;;;;;;;4.90;2.10;;;20.00;84.90;;;;;;5054498;28;20492;-70
2022/06/12 06:24:46;;;;;;;4.22;2.33;;;20.10;84.00;;;;;;5051107;28;21674;-70
2022/06/12 06:27:16;;;;;;;4.70;1.95;;;20.20;84.00;;;;;;5054434;28;20052;-69
2022/06/12 06:29:42;;;;;;;4.45;2.30;;;20.40;83.60;;;;;;5048307;28;20014;-70
2022/06/12 06:32:11;;;;;;;4.80;2.10;;;20.60;84.10;;;;;;5054451;28;20044;-69
2022/06/12 06:34:39;;;;;;;4.47;2.20;;;20.80;84.50;;;;;;5052813;28;20532;-72
2022/06/12 06:37:07;;;;;;;4.85;2.30;;;20.90;83.60;;;;;;5056210;28;20060;-71
2022/06/12 06:39:33;;;;;;;4.18;1.90;;;21.10;82.70;;;;;;5055969;28;20060;-71
2022/06/12 06:41:58;;;;;;;5.20;2.58;;;21.10;83.00;;;;;;5051584;28;20409;-70
2022/06/12 06:47:08;;;;;;;5.82;2.65;;;21.30;86.20;;;;;;5048771;28;20032;-70
2022/06/12 06:49:34;;;;;;;4.63;2.50;;;21.40;86.20;;;;;;5048892;28;20028;-70
2022/06/12 06:52:00;;;;;;;5.18;2.30;;;21.30;85.60;;;;;;5055225;28;20028;-70
2022/06/12 06:54:26;;;;;;;5.65;2.80;;;21.30;87.10;;;;;;5052687;28;20040;-71
2022/06/12 06:56:52;;;;;;;4.70;2.55;;;21.30;86.60;;;;;;5048613;28;20043;-70
2022/06/12 06:59:18;;;;;;;4.88;2.65;;;21.30;87.10;;;;;;5048103;28;20063;-70
2022/06/12 07:01:44;;;;;;;6.55;2.38;;;21.30;86.50;;;;;;5050371;28;20033;-70
2022/06/12 07:04:10;;;;;;;5.30;2.80;;;21.30;85.80;;;;;;5050280;28;20028;-70
2022/06/12 07:06:36;;;;;;;5.03;2.72;;;21.40;85.80;;;;;;5051148;28;20043;-70
2022/06/12 07:09:03;;;;;;;5.82;3.05;;;21.40;85.20;;;;;;5055166;28;20040;-70
2022/06/12 07:11:30;;;;;;;6.13;3.28;;;21.50;85.00;;;;;;5051960;28;20361;-70
2022/06/12 07:13:58;;;;;;;5.13;2.50;;;21.70;83.40;;;;;;5047959;28;20024;-71
2022/06/12 07:16:25;;;;;;;4.82;2.47;;;21.80;81.90;;;;;;5052298;28;20032;-71
2022/06/12 07:18:51;;;;;;;5.82;2.55;;;21.90;80.70;;;;;;5052983;28;20086;-72
2022/06/12 07:21:16;;;;;;;4.20;2.33;;;22.20;81.50;;;;;;5054427;28;20353;-69
2022/06/12 07:23:42;;;;;;;5.25;2.20;;;22.60;80.00;;;;;;5054632;28;20036;-69
2022/06/12 07:26:19;;;;;;;50.67;40.63;;;23.80;75.00;;;;;;5054810;28;20061;-70
2022/06/12 07:28:44;;;;;;;5.25;2.88;;;25.30;72.60;;;;;;5053601;28;20017;-69
2022/06/12 07:31:10;;;;;;;6.30;2.53;;;26.20;70.40;;;;;;5051874;28;20029;-70
2022/06/12 07:33:38;;;;;;;4.03;1.95;;;27.00;68.40;;;;;;5053838;28;20025;-70
2022/06/12 07:36:05;;;;;;;3.67;1.77;;;28.00;66.80;;;;;;5053320;28;20040;-70
2022/06/12 07:38:32;;;;;;;6.32;2.08;;;28.40;63.90;;;;;;5041140;28;20013;-69
2022/06/12 07:41:00;;;;;;;3.33;1.60;;;28.60;63.20;;;;;;5051986;28;20047;-70
2022/06/12 07:43:28;;;;;;;4.35;2.03;;;28.40;63.50;;;;;;5046039;28;20035;-69
2022/06/12 07:45:55;;;;;;;4.03;1.77;;;28.40;62.80;;;;;;5048945;28;20071;-69
2022/06/12 07:48:24;;;;;;;4.63;2.00;;;28.60;61.80;;;;;;5045229;28;20446;-69
2022/06/12 07:50:50;;;;;;;6.07;1.70;;;29.00;62.20;;;;;;5051172;28;20029;-70
2022/06/12 07:53:17;;;;;;;5.75;1.65;;;29.70;59.80;;;;;;5052003;28;20032;-69
2022/06/12 07:55:44;;;;;;;4.25;1.80;;;29.40;59.60;;;;;;5050223;28;20384;-69
2022/06/12 07:58:10;;;;;;;4.35;1.60;;;29.70;58.60;;;;;;5052005;28;20457;-69
2022/06/12 08:00:38;;;;;;;5.45;1.60;;;29.50;57.10;;;;;;5031708;28;20029;-70
2022/06/12 08:03:05;;;;;;;5.10;1.83;;;29.30;57.40;;;;;;5028417;28;20033;-70
2022/06/12 08:05:32;;;;;;;3.95;1.45;;;29.50;58.90;;;;;;5033514;28;20025;-69
2022/06/12 08:07:58;;;;;;;3.17;1.40;;;29.90;55.80;;;;;;5029002;28;20032;-70
2022/06/12 08:10:24;;;;;;;3.80;1.35;;;30.60;56.10;;;;;;5044265;28;20040;-69
2022/06/12 08:12:50;;;;;;;3.50;1.58;;;31.60;55.20;;;;;;5037665;28;20033;-70
2022/06/12 08:15:20;;;;;;;6.63;1.33;;;31.80;52.90;;;;;;5036480;28;20021;-70
2022/06/12 08:17:46;;;;;;;4.57;1.40;;;31.20;52.00;;;;;;5042937;28;20299;-70
2022/06/12 08:20:25;;;;;;;2.83;1.15;;;30.70;53.60;;;;;;5048428;28;20029;-69
2022/06/12 08:22:53;;;;;;;3.58;1.50;;;31.00;52.40;;;;;;5052114;28;20303;-69
2022/06/12 08:25:19;;;;;;;2.47;1.10;;;31.30;51.30;;;;;;5047827;28;20174;-69
2022/06/12 08:27:45;;;;;;;4.25;1.55;;;31.00;53.40;;;;;;5037058;28;20104;-70
2022/06/12 08:30:11;;;;;;;2.83;1.25;;;31.20;52.90;;;;;;5023560;28;20029;-70
2022/06/12 08:32:37;;;;;;;6.40;1.45;;;31.30;53.80;;;;;;5025969;28;20056;-69
2022/06/12 08:35:10;;;;;;;2.60;1.25;;;32.30;53.50;;;;;;5033377;28;20080;-69
2022/06/12 08:37:38;;;;;;;2.78;1.30;;;32.60;53.80;;;;;;5031130;28;20036;-70
2022/06/12 08:40:14;;;;;;;2.85;1.30;;;31.70;53.20;;;;;;5047663;28;20445;-69
2022/06/12 08:42:46;;;;;;;3.80;1.80;;;31.10;54.80;;;;;;5049690;28;20068;-69
2022/06/12 08:45:16;;;;;;;4.85;1.85;;;31.00;59.70;;;;;;5042486;28;20029;-69
2022/06/12 08:48:14;;;;;;;4.68;1.70;;;31.00;58.50;;;;;;5049965;28;20043;-69
2022/06/12 08:50:52;;;;;;;3.90;1.85;;;31.00;58.40;;;;;;5046792;28;20046;-69
2022/06/12 08:53:46;;;;;;;3.38;1.58;;;30.70;61.00;;;;;;5052473;28;20441;-69
2022/06/12 08:56:17;;;;;;;;;;;30.80;60.10;;;;;;5041566;28;20029;-69
2022/06/12 08:59:08;;;;;;;3.53;1.70;;;30.50;61.40;;;;;;5048392;28;20261;-69
2022/06/12 09:01:44;;;;;;;5.68;1.92;;;31.10;58.80;;;;;;5042845;28;20046;-70
2022/06/12 09:04:17;;;;;;;6.00;1.90;;;31.60;57.20;;;;;;5041315;28;20114;-69
2022/06/12 09:06:51;;;;;;;18.50;8.82;;;31.80;57.70;;;;;;5045921;28;20074;-70
2022/06/12 09:09:38;;;;;;;4.60;1.75;;;31.40;57.00;;;;;;5051517;28;21235;-69
2022/06/12 09:12:23;;;;;;;4.57;1.70;;;31.20;57.80;;;;;;5046959;28;20120;-69
2022/06/12 09:15:02;;;;;;;3.33;1.55;;;31.70;56.00;;;;;;5035127;28;20128;-68
2022/06/12 09:18:04;;;;;;;5.68;2.20;;;31.30;56.80;;;;;;5053677;28;20112;-68
2022/06/12 09:20:53;;;;;;;3.05;1.40;;;31.00;56.40;;;;;;5059534;28;20029;-70
2022/06/12 09:23:57;;;;;;;3.55;1.52;;;31.30;55.70;;;;;;5053338;28;20028;-69
2022/06/12 09:26:36;;;;;;;5.13;1.42;;;31.70;55.80;;;;;;5049771;28;20024;-69
2022/06/12 09:29:21;;;;;;;4.50;1.70;;;32.30;54.40;;;;;;5051939;28;20029;-70
2022/06/12 09:32:28;;;;;;;4.93;1.60;;;33.30;51.40;;;;;;5048162;28;20036;-69
2022/06/12 09:35:15;;;;;;;4.50;1.50;;;33.70;51.00;;;;;;5053656;28;20071;-70
2022/06/12 09:40:41;;;;;;;4.88;1.50;;;32.40;50.60;;;;;;5053157;28;20060;-70
2022/06/12 09:43:34;;;;;;;3.45;1.23;;;31.90;52.20;;;;;;5053046;28;20033;-69
2022/06/12 09:46:14;;;;;;;3.53;1.40;;;32.20;51.40;;;;;;5044473;28;20037;-69
2022/06/12 09:48:48;;;;;;;4.20;1.60;;;32.00;50.50;;;;;;5038327;28;20055;-69
2022/06/12 09:51:37;;;;;;;4.88;1.50;;;32.30;50.70;;;;;;5038691;28;20134;-69
2022/06/12 09:54:30;;;;;;;2.88;1.35;;;32.70;49.60;;;;;;5038567;28;20055;-69
2022/06/12 09:57:13;;;;;;;4.50;1.42;;;32.70;49.10;;;;;;5049090;28;20037;-69
2022/06/12 10:00:07;;;;;;;4.07;1.70;;;31.60;50.20;;;;;;5044889;28;20071;-69
2022/06/12 10:02:46;;;;;;;5.13;1.58;;;31.20;51.50;;;;;;5045421;28;20737;-68
2022/06/12 10:05:29;;;;;;;3.97;1.70;;;31.10;51.70;;;;;;5054377;28;20053;-69
2022/06/12 10:08:04;;;;;;;;;;;31.80;51.20;;;;;;5051950;28;20032;-69
2022/06/12 10:10:39;;;;;;;4.40;1.60;;;32.00;50.30;;;;;;5045955;28;20186;-68
2022/06/12 10:13:13;;;;;;;4.28;1.45;;;32.90;49.20;;;;;;5053039;28;20302;-69
2022/06/12 10:15:56;;;;;;;3.97;1.50;;;33.40;50.40;;;;;;5050477;28;20070;-68
2022/06/12 10:18:37;;;;;;;4.28;1.58;;;32.40;49.50;;;;;;5048845;28;20040;-68
2022/06/12 10:21:08;;;;;;;5.93;1.70;;;31.70;51.50;;;;;;5054023;28;20109;-69
2022/06/12 10:23:34;;;;;;;3.65;1.40;;;31.30;53.00;;;;;;5053276;28;20021;-70
2022/06/12 10:26:07;;;;;;;3.17;1.30;;;31.40;53.10;;;;;;5053007;28;20467;-68
2022/06/12 10:28:38;;;;;;;5.47;1.70;;;32.10;51.50;;;;;;5049513;28;20084;-68
2022/06/12 10:31:22;;;;;;;4.65;1.63;;;31.90;51.40;;;;;;5048817;28;20029;-68
2022/06/12 10:33:49;;;;;;;4.20;1.58;;;32.00;51.90;;;;;;5051299;28;20048;-70
2022/06/12 10:36:29;;;;;;;4.63;1.50;;;32.70;50.40;;;;;;5051611;28;20052;-69
2022/06/12 10:39:17;;;;;;;6.38;2.20;;;32.40;51.50;;;;;;5054732;28;20051;-68
2022/06/12 10:41:51;;;;;;;3.40;1.50;;;31.80;53.70;;;;;;5055459;28;20086;-70
2022/06/12 10:44:33;;;;;;;4.15;1.55;;;31.40;52.20;;;;;;5046492;28;20080;-68
2022/06/12 10:47:09;;;;;;;3.78;1.38;;;31.40;53.80;;;;;;5049429;28;20025;-70
2022/06/12 10:49:35;;;;;;;3.90;1.50;;;31.40;53.30;;;;;;5053997;28;20032;-69
2022/06/12 10:52:06;;;;;;;4.68;1.60;;;31.60;51.80;;;;;;5053502;28;20337;-70
2022/06/12 10:54:33;;;;;;;3.20;1.58;;;31.30;51.30;;;;;;5042538;28;20504;-68
2022/06/12 10:57:20;;;;;;;4.20;1.38;;;31.00;52.10;;;;;;5049346;28;20037;-69
2022/06/12 10:59:54;;;;;;;2.70;1.30;;;31.60;52.50;;;;;;5045625;28;20040;-70
2022/06/12 11:02:22;;;;;;;;;;;31.80;50.80;;;;;;5052482;28;20105;-69
2022/06/12 11:05:20;;;;;;;3.47;1.27;;;31.20;51.90;;;;;;5049886;28;19913;-70
2022/06/12 11:08:01;;;;;;;3.38;1.50;;;30.70;52.80;;;;;;5047976;28;20041;-68
2022/06/12 11:10:45;;;;;;;5.72;1.80;;;30.70;53.60;;;;;;5052219;28;20029;-69
2022/06/12 11:13:30;;;;;;;5.03;1.50;;;30.70;54.00;;;;;;5052750;28;20021;-70
2022/06/12 11:16:05;;;;;;;5.15;2.08;;;30.90;55.40;;;;;;5048784;28;20416;-69
2022/06/12 11:18:40;;;;;;;4.70;1.50;;;30.90;54.90;;;;;;5055031;28;20036;-68
2022/06/12 11:21:19;;;;;;;3.67;1.45;;;30.80;52.90;;;;;;5052723;28;20120;-68
2022/06/12 11:23:51;;;;;;;3.53;1.52;;;30.40;53.40;;;;;;5049873;28;20084;-69
2022/06/12 11:26:53;;;;;;;4.65;1.70;;;31.00;51.70;;;;;;5053594;28;20056;-69
2022/06/12 11:29:30;;;;;;;3.53;1.50;;;31.70;54.40;;;;;;5052403;28;20076;-70
2022/06/12 11:32:14;;;;;;;5.35;2.53;;;31.20;50.40;;;;;;5048799;28;20079;-69
2022/06/12 11:34:48;;;;;;;5.18;2.42;;;31.10;52.00;;;;;;5047669;28;20049;-69
2022/06/12 11:37:42;;;;;;;5.18;1.65;;;31.30;53.10;;;;;;5050150;28;20056;-68
2022/06/12 11:40:44;;;;;;;2.78;1.40;;;31.70;53.50;;;;;;5055309;28;20029;-69
2022/06/12 11:43:28;;;;;;;3.30;1.60;;;32.00;52.90;;;;;;5054831;28;20047;-70
2022/06/12 11:46:19;;;;;;;3.22;1.30;;;32.10;52.00;;;;;;5049662;28;20021;-69
2022/06/12 11:49:03;;;;;;;3.28;1.25;;;32.40;49.60;;;;;;5053505;28;20020;-70
2022/06/12 11:51:47;;;;;;;3.40;1.40;;;32.00;51.30;;;;;;5035677;28;20025;-70
2022/06/12 11:54:13;;;;;;;;;;;31.50;51.40;;;;;;5042275;28;20029;-70
2022/06/12 11:56:50;;;;;;;4.88;1.50;;;31.50;50.70;;;;;;5054261;28;20054;-70
2022/06/12 11:59:31;;;;;;;3.08;1.42;;;31.50;51.40;;;;;;5044258;28;20021;-70
2022/06/12 12:02:32;;;;;;;3.75;1.48;;;31.30;51.10;;;;;;5051683;28;20024;-69
2022/06/12 12:05:14;;;;;;;3.13;1.40;;;31.50;52.30;;;;;;5053497;28;20029;-69
2022/06/12 12:07:55;;;;;;;3.13;1.40;;;31.00;51.00;;;;;;5053078;28;20047;-68
2022/06/12 12:10:48;;;;;;;5.22;1.60;;;30.60;51.90;;;;;;5052368;28;20111;-68
2022/06/12 12:13:22;;;;;;;3.53;1.50;;;30.80;52.30;;;;;;5044753;28;20033;-70
2022/06/12 12:16:04;;;;;;;2.85;1.25;;;31.70;50.60;;;;;;5049461;28;20034;-70
2022/06/12 12:18:38;;;;;;;4.05;1.40;;;32.20;50.60;;;;;;5053192;28;20040;-70
2022/06/12 12:21:09;;;;;;;2.65;1.27;;;32.50;50.20;;;;;;5053947;28;20036;-70
2022/06/12 12:23:39;;;;;;;4.72;1.33;;;32.90;50.20;;;;;;5049659;28;20036;-69
2022/06/12 12:26:28;;;;;;;3.28;1.20;;;33.40;51.10;;;;;;5050009;28;20060;-70
2022/06/12 12:29:00;;;;;;;6.03;1.20;;;33.80;47.70;;;;;;5035574;28;20029;-70
2022/06/12 12:31:27;;;;;;;2.55;1.20;;;33.60;48.30;;;;;;5050440;28;20425;-70
2022/06/12 12:33:55;;;;;;;4.22;1.52;;;32.00;49.30;;;;;;5052898;28;20033;-70
2022/06/12 12:42:34;;;;;;;4.60;1.42;;;31.50;49.80;;;;;;5033829;28;20133;-70
2022/06/12 12:45:24;;;;;;;4.22;1.70;;;31.40;50.70;;;;;;5046502;28;20025;-70
2022/06/12 12:48:07;;;;;;;2.58;1.40;;;31.30;50.50;;;;;;5033783;28;20095;-70
2022/06/12 12:50:48;;;;;;;2.95;1.23;;;31.60;50.80;;;;;;5050305;28;20029;-70
2022/06/12 12:53:29;;;;;;;2.72;1.17;;;32.50;50.60;;;;;;5053597;28;20044;-70
2022/06/12 12:56:04;;;;;;;2.42;1.23;;;33.40;49.40;;;;;;5052811;28;20017;-70
2022/06/12 12:58:32;;;;;;;3.47;1.38;;;33.00;48.80;;;;;;5036058;28;20481;-70
2022/06/12 13:01:20;;;;;;;3.13;1.30;;;33.00;49.10;;;;;;5051386;28;20047;-70
2022/06/12 13:03:55;;;;;;;3.38;1.35;;;33.20;48.00;;;;;;5052281;28;20028;-70
2022/06/12 13:06:56;;;;;;;2.25;1.20;;;33.10;48.70;;;;;;5053611;28;20417;-70
2022/06/12 13:09:48;;;;;;;4.65;1.33;;;34.10;49.70;;;;;;5051050;28;20108;-70
2022/06/12 13:12:55;;;;;;;3.35;1.30;;;34.70;46.70;;;;;;5049986;28;20028;-70
2022/06/12 13:15:59;;;;;;;4.28;1.40;;;33.30;47.60;;;;;;5049115;28;20071;-70
2022/06/12 13:18:27;;;;;;;2.40;1.15;;;33.10;48.90;;;;;;5053587;28;20037;-70
2022/06/12 13:20:56;;;;;;;6.10;1.50;;;32.70;49.80;;;;;;5049547;28;20036;-69
2022/06/12 13:23:53;;;;;;;2.95;1.40;;;32.80;49.50;;;;;;5051375;28;20073;-70
2022/06/12 13:26:21;;;;;;;4.20;1.80;;;32.50;49.90;;;;;;5051745;28;20075;-68
2022/06/12 13:28:59;;;;;;;3.17;1.50;;;32.00;49.80;;;;;;5050506;28;20017;-69
2022/06/12 13:31:28;;;;;;;2.92;1.30;;;32.30;49.50;;;;;;5054141;28;20158;-68
2022/06/12 13:33:58;;;;;;;3.85;1.55;;;32.80;49.20;;;;;;5056054;28;20029;-69
2022/06/12 13:36:33;;;;;;;3.40;1.20;;;33.30;48.20;;;;;;5055847;28;20417;-69
2022/06/12 13:39:06;;;;;;;3.20;1.30;;;33.60;48.20;;;;;;5053927;28;20060;-70
2022/06/12 13:41:42;;;;;;;4.15;1.23;;;34.50;46.20;;;;;;5041564;28;20056;-70
2022/06/12 13:44:37;;;;;;;3.30;1.40;;;34.90;46.20;;;;;;5053493;28;20041;-70
2022/06/12 13:47:19;;;;;;;3.20;1.45;;;34.40;47.30;;;;;;5050911;28;20072;-70